Flight Track Log - Related Links

Times and Time Zones

All times are in EDT time to prevent confusion due to time zone crossing. See the AR130 flight status page for this flight to view local times or setup timezone preferences in your user account.

Time Position Orientation Groundspeed Altitude Reporting Facility
EDT Latitude Longitude Course Direction KTS MPH feet Rate Location/Type
Thu 06:18:29 PM 57.1833 -106.1167 262° West 90 104 13,300  Level Winnipeg Center
Thu 06:23:29 PM 57.1500 -106.5333 270° West 170 196 22,100 1,667 Climbing Winnipeg Center
Thu 06:24:29 PM 57.1500 -106.6333 250° West 170 196 23,300 950 Climbing Winnipeg Center
Thu 06:25:29 PM 57.1333 -106.7167 255° West 180 207 24,000 400 Climbing Winnipeg Center
Thu 06:26:29 PM 57.1167 -106.8333 253° West 210 242 24,100 50 Climbing Winnipeg Center
Thu 06:27:29 PM 57.1000 -106.9333 270° West 230 265 24,100 -100 Level Winnipeg Center
Thu 06:28:29 PM 57.1000 -107.0500 255° West 240 276 23,900 -50 Descending Winnipeg Center
Thu 06:29:29 PM 57.0833 -107.1667 270° West 240 276 24,000  Climbing Winnipeg Center
Thu 06:30:29 PM 57.0833 -107.3000 255° West 240 276 23,900  Descending Winnipeg Center
Thu 06:31:29 PM 57.0667 -107.4167 270° West 240 276 24,000  Climbing Winnipeg Center
Thu 06:32:29 PM 57.0667 -107.5333 234° Southwest 240 276 23,900 -54 Descending Winnipeg Center
Thu 06:33:20 PM 57.0333 -107.6167 270° West 240 276 23,900  Level Edmonton Center
Thu 06:34:20 PM 57.0333 -107.7333 242° Southwest 240 276 23,900 50 Level Edmonton Center
Thu 06:35:20 PM 57.0000 -107.8500 270° West 240 276 24,000  Climbing Edmonton Center
Thu 06:36:20 PM 57.0000 -107.9833 255° West 240 276 23,900 -50 Descending Edmonton Center
Thu 06:37:20 PM 56.9833 -108.1000 257° West 250 288 23,900  Level Edmonton Center
Thu 06:38:20 PM 56.9667 -108.2333 270° West 250 288 23,900  Level Edmonton Center
Thu 06:39:20 PM 56.9667 -108.3500 242° Southwest 250 288 23,900  Level Edmonton Center
Thu 06:40:20 PM 56.9333 -108.4667 270° West 250 288 23,900  Level Edmonton Center
Thu 06:41:20 PM 56.9333 -108.6333 255° West 250 288 23,900 50 Level Edmonton Center
Thu 06:42:20 PM 56.9167 -108.7500 255° West 250 288 24,000  Climbing Edmonton Center
Thu 06:43:20 PM 56.9000 -108.8667 257° West 250 288 23,900 -50 Descending Edmonton Center
Thu 06:44:20 PM 56.8833 -109.0000 255° West 250 288 23,900  Level Edmonton Center
Thu 06:45:20 PM 56.8667 -109.1167 270° West 250 288 23,900  Level Edmonton Center
Thu 06:46:20 PM 56.8667 -109.2500 264° West 250 288 23,900  Level Edmonton Center
Thu 06:48:29 PM 56.8500 -109.5500 255° West 250 288 23,900 32 Level Winnipeg Center
Thu 06:49:29 PM 56.8333 -109.6667 255° West 250 288 24,000  Climbing Winnipeg Center
Thu 06:50:29 PM 56.8167 -109.7833 248° West 250 288 23,900 -50 Descending Winnipeg Center
Thu 06:51:29 PM 56.7833 -109.9333 255° West 250 288 23,900  Level Winnipeg Center
Thu 06:52:29 PM 56.7667 -110.0500 270° West 250 288 23,900  Level Winnipeg Center
Thu 06:53:29 PM 56.7667 -110.1667 255° West 250 288 23,900  Level Winnipeg Center
Thu 06:54:29 PM 56.7500 -110.2833 257° West 250 288 23,900  Level Winnipeg Center
Thu 06:55:29 PM 56.7333 -110.4167 255° West 250 288 23,900  Level Winnipeg Center
Thu 06:56:29 PM 56.7167 -110.5333 270° West 250 288 23,900  Level Winnipeg Center
Thu 06:57:29 PM 56.7167 -110.6833 239° Southwest 250 288 23,900  Level Winnipeg Center
Thu 06:58:29 PM 56.6833 -110.7833 257° West 250 288 23,900  Level Winnipeg Center
Thu 06:59:29 PM 56.6667 -110.9167 255° West 250 288 23,900 50 Level Winnipeg Center
Thu 07:00:29 PM 56.6500 -111.0333 255° West 250 288 24,000  Climbing Winnipeg Center
Thu 07:01:29 PM 56.6333 -111.1500 209° Southwest 250 288 23,900  Descending Winnipeg Center
Thu 07:02:20 PM 56.6000 -111.1833 198° South 260 299 24,000  Climbing Edmonton Center
Thu 07:03:20 PM 56.5167 -111.2333 203° Southwest 280 322 23,900 -50 Descending Edmonton Center
Thu 07:04:20 PM 56.4500 -111.2833 215° Southwest 270 311 23,900  Level Edmonton Center
Thu 07:05:20 PM 56.3833 -111.3667 203° Southwest 270 311 23,900  Level Edmonton Center
Thu 07:06:20 PM 56.3167 -111.4167 209° Southwest 270 311 23,900  Level Edmonton Center
Thu 07:07:20 PM 56.2333 -111.5000 203° Southwest 280 322 23,900  Level Edmonton Center
Thu 07:08:20 PM 56.1667 -111.5500 203° Southwest 280 322 23,900  Level Edmonton Center
Thu 07:09:20 PM 56.1000 -111.6000 204° Southwest 280 322 23,900  Level Edmonton Center
Thu 07:10:20 PM 56.0167 -111.6667 203° Southwest 280 322 23,900  Level Edmonton Center
Thu 07:11:20 PM 55.9500 -111.7167 203° Southwest 280 322 23,900  Level Edmonton Center
Thu 07:12:20 PM 55.8833 -111.7667 215° Southwest 280 322 23,900  Level Edmonton Center
Thu 07:13:20 PM 55.8167 -111.8500 199° South 280 322 23,900  Level Edmonton Center
Thu 07:14:20 PM 55.7333 -111.9000 203° Southwest 280 322 23,900  Level Edmonton Center
Thu 07:15:20 PM 55.6667 -111.9500 209° Southwest 280 322 23,900  Level Edmonton Center
Thu 07:16:20 PM 55.6000 -112.0167 203° Southwest 280 322 23,900 50 Level Edmonton Center
Thu 07:17:20 PM 55.5333 -112.0667 210° Southwest 280 322 24,000  Climbing Edmonton Center
Thu 07:18:20 PM 55.4500 -112.1500 196° South 280 322 23,900 -50 Descending Edmonton Center
Thu 07:19:20 PM 55.3833 -112.1833 203° Southwest 280 322 23,900  Level Edmonton Center
Thu 07:20:20 PM 55.3167 -112.2333 210° Southwest 280 322 23,900  Level Edmonton Center
Thu 07:21:20 PM 55.2333 -112.3167 203° Southwest 280 322 23,900  Level Edmonton Center
Thu 07:22:20 PM 55.1667 -112.3667 196° South 280 322 23,900  Level Edmonton Center
Thu 07:23:20 PM 55.1000 -112.4000 210° Southwest 280 322 23,900  Level Edmonton Center
Thu 07:24:20 PM 55.0167 -112.4833 203° Southwest 280 322 23,900  Level Edmonton Center
Thu 07:25:20 PM 54.9500 -112.5333 210° Southwest 280 322 23,900  Level Edmonton Center
Thu 07:26:20 PM 54.8833 -112.6000 203° Southwest 280 322 23,900 50 Level Edmonton Center
Thu 07:27:20 PM 54.8167 -112.6500 193° South 280 322 24,000  Climbing Edmonton Center
Thu 07:28:20 PM 54.7333 -112.6833 216° Southwest 280 322 23,900 -50 Descending Edmonton Center
Thu 07:29:20 PM 54.6667 -112.7667 203° Southwest 280 322 23,900 -150 Level Edmonton Center
Thu 07:30:20 PM 54.6000 -112.8167 205° Southwest 280 322 23,600 -750 Descending Edmonton Center
Thu 07:31:20 PM 54.5167 -112.8833 204° Southwest 290 334 22,400 -1,350 Descending Edmonton Center
Thu 07:32:20 PM 54.4500 -112.9333 210° Southwest 290 334 20,900 -1,400 Descending Edmonton Center
Thu 07:33:20 PM 54.3833 -113.0000 191° South 290 334 19,600 -1,350 Descending Edmonton Center
Thu 07:34:20 PM 54.2833 -113.0333 224° Southwest 280 322 18,200 -1,400 Descending Edmonton Center
Thu 07:35:20 PM 54.2333 -113.1167 193° South 280 322 16,800 -1,400 Descending Edmonton Center
Thu 07:36:20 PM 54.1500 -113.1500 199° South 280 322 15,400 -1,550 Descending Edmonton Center
Thu 07:37:20 PM 54.0667 -113.2000 188° South 290 334 13,700 -1,600 Descending Edmonton Center
Thu 07:38:20 PM 54.0000 -113.2167 193° South 280 322 12,200 -1,500 Descending Edmonton Center
Thu 07:39:20 PM 53.9167 -113.2500 191° South 270 311 10,700 -1,350 Descending Edmonton Center
Thu 07:40:20 PM 53.8667 -113.2667 204° Southwest 270 311 9,500 -1,300 Descending Edmonton Center
Thu 07:41:20 PM 53.8000 -113.3167 187° South 250 288 8,100 -1,450 Descending Edmonton Center
Thu 07:42:20 PM 53.7167 -113.3333 197° South 240 276 6,600 -1,200 Descending Edmonton Center
Thu 07:43:20 PM 53.6500 -113.3667 191° South 230 265 5,700 -500 Descending Edmonton Center
Thu 07:44:20 PM 53.6000 -113.3833 191° South 220 253 5,600 -550 Descending Edmonton Center
Thu 07:45:20 PM 53.5500 -113.4000 247° West 180 207 4,600 -950 Descending Edmonton Center
Thu 07:46:20 PM 53.5333 -113.4667 241° Southwest 160 184 3,700 -900 Descending Edmonton Center
Thu 07:47:20 PM 53.5167 -113.5167 329° Northwest 130 150 2,800 -750 Descending Edmonton Center
Thu 07:48:20 PM 53.5500 -113.5500 329° Northwest 110 127 2,200 -600 Descending Edmonton Center

Login

Don't have an account? Register now (free) for customized features, flight alerts, and more!